Hovedside
METAR-TAF:

METAR-TAF

Lufthavner :

Stokmarknes, Norge

Stokmarknes lufthavn

breddegrad: 68-35N, lengdegrad: 015-01E, høyde over havet: 0 m

Gjeldene værobservasjon

Denne rapporten ble laget for 1 time og 6 minutter siden, klokken 19:50 UTC
Vind 15 kt fra Vest
Temperatur 1°C
Luftfuktighet 86%
Trykk 1009 hPa
Sikt: 2000 m
snøbyger

METAR: ENSK 261950Z 27015KT 2000 SHSN VV017 01/M01 Q1009

Tid: 22:56 (20:56 UTC)


TAF: fraværende

Værobservasjoner og værvarsel for over 4000 flyplasser (METAR- og TAF-rapporter).

Tilgjengelige stasjoner er representert av de røde og gule prikkene på kartet.

Hold musepekeren over prikken for å se navnet på stasjonen.

Klikk så for å se værobservasjoner og -varsler.

For å forandre kartet kan du klikke på den grønne knappen med svart kryss for å zoome inn, på den grønne knappen med strek for å zoome ut, eller på de grønne pilene for å se tilstøtende kart.


METAR-TAF: